sensor_id;sensor_type;location;lat;lon;timestamp;pressure;altitude;pressure_sealevel;temperature;humidity
6942;BME280;3510;43.200;27.920;2023-04-26T00:00:47;100078.06;;;23.13;45.78
6942;BME280;3510;43.200;27.920;2023-04-26T00:03:13;100072.69;;;23.01;46.17
6942;BME280;3510;43.200;27.920;2023-04-26T00:05:40;100066.72;;;23.42;45.31
6942;BME280;3510;43.200;27.920;2023-04-26T00:08:06;100066.25;;;23.19;46.01
6942;BME280;3510;43.200;27.920;2023-04-26T00:10:33;100067.25;;;23.26;45.94
6942;BME280;3510;43.200;27.920;2023-04-26T00:13:00;100063.66;;;23.18;45.81
6942;BME280;3510;43.200;27.920;2023-04-26T00:15:27;100073.00;;;22.78;46.73
6942;BME280;3510;43.200;27.920;2023-04-26T00:17:55;100063.03;;;22.18;48.19
6942;BME280;3510;43.200;27.920;2023-04-26T00:20:25;100067.50;;;22.25;47.85
6942;BME280;3510;43.200;27.920;2023-04-26T00:22:51;100067.75;;;22.03;48.33
6942;BME280;3510;43.200;27.920;2023-04-26T00:25:17;100064.31;;;21.70;49.03
6942;BME280;3510;43.200;27.920;2023-04-26T00:27:44;100064.50;;;21.46;49.88
6942;BME280;3510;43.200;27.920;2023-04-26T00:30:11;100059.44;;;21.80;48.97
6942;BME280;3510;43.200;27.920;2023-04-26T00:32:37;100064.03;;;21.60;49.38
6942;BME280;3510;43.200;27.920;2023-04-26T00:35:06;100062.16;;;21.54;49.32
6942;BME280;3510;43.200;27.920;2023-04-26T00:37:33;100065.66;;;21.58;49.52
6942;BME280;3510;43.200;27.920;2023-04-26T00:40:00;100065.47;;;21.21;50.36
6942;BME280;3510;43.200;27.920;2023-04-26T00:42:26;100065.72;;;21.00;51.04
6942;BME280;3510;43.200;27.920;2023-04-26T00:44:53;100065.25;;;21.14;50.47
6942;BME280;3510;43.200;27.920;2023-04-26T00:47:21;100058.88;;;21.30;50.08
6942;BME280;3510;43.200;27.920;2023-04-26T00:49:48;100062.59;;;20.82;51.28
6942;BME280;3510;43.200;27.920;2023-04-26T00:52:15;100059.44;;;20.91;50.85
6942;BME280;3510;43.200;27.920;2023-04-26T00:54:42;100060.47;;;20.69;51.58
6942;BME280;3510;43.200;27.920;2023-04-26T00:57:09;100068.78;;;20.11;53.18
6942;BME280;3510;43.200;27.920;2023-04-26T00:59:36;100061.31;;;20.17;52.66
6942;BME280;3510;43.200;27.920;2023-04-26T01:02:02;100053.38;;;20.08;52.58
6942;BME280;3510;43.200;27.920;2023-04-26T01:04:29;100056.53;;;20.51;51.68
6942;BME280;3510;43.200;27.920;2023-04-26T01:06:55;100057.84;;;20.40;52.03
6942;BME280;3510;43.200;27.920;2023-04-26T01:09:23;100057.06;;;20.43;52.07
6942;BME280;3510;43.200;27.920;2023-04-26T01:11:50;100058.31;;;20.28;52.25
6942;BME280;3510;43.200;27.920;2023-04-26T01:14:17;100058.63;;;20.65;51.42
6942;BME280;3510;43.200;27.920;2023-04-26T01:16:44;100061.13;;;20.36;52.23
6942;BME280;3510;43.200;27.920;2023-04-26T01:19:12;100061.19;;;20.65;51.49
6942;BME280;3510;43.200;27.920;2023-04-26T01:21:39;100057.84;;;20.94;50.55
6942;BME280;3510;43.200;27.920;2023-04-26T01:24:07;100050.78;;;20.59;51.61
6942;BME280;3510;43.200;27.920;2023-04-26T01:26:34;100056.78;;;20.59;51.29
6942;BME280;3510;43.200;27.920;2023-04-26T01:29:11;100051.06;;;20.68;51.27
6942;BME280;3510;43.200;27.920;2023-04-26T01:31:37;100050.81;;;20.87;50.85
6942;BME280;3510;43.200;27.920;2023-04-26T01:34:04;100046.47;;;20.85;50.93
6942;BME280;3510;43.200;27.920;2023-04-26T01:36:31;100050.03;;;20.90;50.90
6942;BME280;3510;43.200;27.920;2023-04-26T01:38:57;100033.81;;;20.89;50.43
6942;BME280;3510;43.200;27.920;2023-04-26T01:41:25;100035.84;;;20.72;50.73
6942;BME280;3510;43.200;27.920;2023-04-26T01:43:52;100036.81;;;20.22;51.71
6942;BME280;3510;43.200;27.920;2023-04-26T01:46:19;100037.19;;;20.34;51.38
6942;BME280;3510;43.200;27.920;2023-04-26T01:48:46;100033.91;;;20.38;51.17
6942;BME280;3510;43.200;27.920;2023-04-26T01:51:12;100032.91;;;20.08;51.93
6942;BME280;3510;43.200;27.920;2023-04-26T01:53:40;100037.03;;;20.82;50.01
6942;BME280;3510;43.200;27.920;2023-04-26T01:56:07;100037.47;;;20.16;51.57
6942;BME280;3510;43.200;27.920;2023-04-26T01:58:35;100031.28;;;19.84;52.03
6942;BME280;3510;43.200;27.920;2023-04-26T02:01:03;100032.41;;;20.18;51.47
6942;BME280;3510;43.200;27.920;2023-04-26T02:03:30;100035.59;;;20.11;51.74
6942;BME280;3510;43.200;27.920;2023-04-26T02:05:57;100033.97;;;20.40;50.87
6942;BME280;3510;43.200;27.920;2023-04-26T02:08:24;100030.97;;;20.80;49.75
6942;BME280;3510;43.200;27.920;2023-04-26T02:10:50;100030.97;;;20.00;51.20
6942;BME280;3510;43.200;27.920;2023-04-26T02:13:16;100031.66;;;20.47;50.70
6942;BME280;3510;43.200;27.920;2023-04-26T02:15:46;100025.09;;;20.28;50.74
6942;BME280;3510;43.200;27.920;2023-04-26T02:18:13;100034.94;;;20.43;50.45
6942;BME280;3510;43.200;27.920;2023-04-26T02:20:39;100033.69;;;20.58;50.21
6942;BME280;3510;43.200;27.920;2023-04-26T02:23:07;100029.50;;;20.60;50.32
6942;BME280;3510;43.200;27.920;2023-04-26T02:25:33;100026.19;;;20.62;50.20
6942;BME280;3510;43.200;27.920;2023-04-26T02:28:01;100032.66;;;20.25;50.85
6942;BME280;3510;43.200;27.920;2023-04-26T02:30:28;100038.38;;;20.44;50.55
6942;BME280;3510;43.200;27.920;2023-04-26T02:32:57;100033.09;;;20.39;50.52
6942;BME280;3510;43.200;27.920;2023-04-26T02:35:23;100033.66;;;20.30;51.00
6942;BME280;3510;43.200;27.920;2023-04-26T02:37:49;100034.63;;;20.60;50.26
6942;BME280;3510;43.200;27.920;2023-04-26T02:40:17;100035.88;;;20.20;51.22
6942;BME280;3510;43.200;27.920;2023-04-26T02:42:43;100035.47;;;20.33;50.86
6942;BME280;3510;43.200;27.920;2023-04-26T02:45:11;100032.19;;;20.12;51.35
6942;BME280;3510;43.200;27.920;2023-04-26T02:47:38;100027.06;;;20.37;50.89
6942;BME280;3510;43.200;27.920;2023-04-26T02:50:07;100028.63;;;20.32;51.03
6942;BME280;3510;43.200;27.920;2023-04-26T02:52:34;100031.34;;;20.38;51.13
6942;BME280;3510;43.200;27.920;2023-04-26T02:55:01;100030.91;;;20.24;51.17
6942;BME280;3510;43.200;27.920;2023-04-26T02:57:28;100019.94;;;20.54;50.44
6942;BME280;3510;43.200;27.920;2023-04-26T02:59:54;100025.13;;;20.03;51.58
6942;BME280;3510;43.200;27.920;2023-04-26T03:02:21;100027.72;;;19.56;52.86
6942;BME280;3510;43.200;27.920;2023-04-26T03:04:48;100019.81;;;19.98;51.89
6942;BME280;3510;43.200;27.920;2023-04-26T03:07:16;100023.06;;;19.93;52.10
6942;BME280;3510;43.200;27.920;2023-04-26T03:09:42;100010.78;;;20.34;51.18
6942;BME280;3510;43.200;27.920;2023-04-26T03:12:09;100019.28;;;20.33;51.03
6942;BME280;3510;43.200;27.920;2023-04-26T03:14:35;100016.22;;;20.44;50.93
6942;BME280;3510;43.200;27.920;2023-04-26T03:17:02;100017.31;;;20.51;50.73
6942;BME280;3510;43.200;27.920;2023-04-26T03:19:28;100022.06;;;20.40;50.89
6942;BME280;3510;43.200;27.920;2023-04-26T03:21:55;100021.06;;;20.10;51.65
6942;BME280;3510;43.200;27.920;2023-04-26T03:24:23;100018.72;;;20.43;50.94
6942;BME280;3510;43.200;27.920;2023-04-26T03:26:49;100019.22;;;20.05;51.89
6942;BME280;3510;43.200;27.920;2023-04-26T03:29:16;100023.56;;;20.61;50.82
6942;BME280;3510;43.200;27.920;2023-04-26T03:31:42;100020.34;;;20.66;50.66
6942;BME280;3510;43.200;27.920;2023-04-26T03:34:09;100022.72;;;20.35;50.83
6942;BME280;3510;43.200;27.920;2023-04-26T03:36:36;100022.84;;;20.39;51.06
6942;BME280;3510;43.200;27.920;2023-04-26T03:39:16;100021.31;;;20.70;50.50
6942;BME280;3510;43.200;27.920;2023-04-26T03:41:44;100017.09;;;21.00;49.82
6942;BME280;3510;43.200;27.920;2023-04-26T03:44:11;100019.72;;;20.73;50.36
6942;BME280;3510;43.200;27.920;2023-04-26T03:46:38;100028.66;;;20.59;50.72
6942;BME280;3510;43.200;27.920;2023-04-26T03:49:04;100024.66;;;20.15;51.75
6942;BME280;3510;43.200;27.920;2023-04-26T03:51:32;100023.69;;;20.38;51.00
6942;BME280;3510;43.200;27.920;2023-04-26T03:53:59;100031.22;;;20.59;50.89
6942;BME280;3510;43.200;27.920;2023-04-26T03:56:25;100025.00;;;20.51;51.03
6942;BME280;3510;43.200;27.920;2023-04-26T04:01:49;100027.34;;;19.46;53.73
6942;BME280;3510;43.200;27.920;2023-04-26T04:04:15;100029.50;;;19.81;52.46
6942;BME280;3510;43.200;27.920;2023-04-26T04:06:44;100024.56;;;20.13;51.76
6942;BME280;3510;43.200;27.920;2023-04-26T04:09:11;100023.56;;;20.08;51.96
6942;BME280;3510;43.200;27.920;2023-04-26T04:11:38;100031.44;;;20.67;50.78
6942;BME280;3510;43.200;27.920;2023-04-26T04:14:04;100036.75;;;20.73;50.49
6942;BME280;3510;43.200;27.920;2023-04-26T04:16:31;100043.03;;;20.04;51.70
6942;BME280;3510;43.200;27.920;2023-04-26T04:19:00;100051.09;;;20.17;51.97
6942;BME280;3510;43.200;27.920;2023-04-26T04:21:26;100038.59;;;19.99;51.81
6942;BME280;3510;43.200;27.920;2023-04-26T04:23:53;100044.59;;;19.51;53.10
6942;BME280;3510;43.200;27.920;2023-04-26T04:26:19;100039.50;;;20.01;51.94
6942;BME280;3510;43.200;27.920;2023-04-26T04:28:46;100046.41;;;20.29;51.55
6942;BME280;3510;43.200;27.920;2023-04-26T04:31:13;100043.19;;;20.89;49.93
6942;BME280;3510;43.200;27.920;2023-04-26T04:33:41;100041.41;;;20.32;51.63
6942;BME280;3510;43.200;27.920;2023-04-26T04:36:09;100039.28;;;21.01;49.92
6942;BME280;3510;43.200;27.920;2023-04-26T04:38:36;100052.72;;;20.94;49.56
6942;BME280;3510;43.200;27.920;2023-04-26T04:41:03;100045.41;;;20.78;49.79
6942;BME280;3510;43.200;27.920;2023-04-26T04:43:32;100048.44;;;21.22;49.26
6942;BME280;3510;43.200;27.920;2023-04-26T04:45:59;100043.06;;;20.57;50.53
6942;BME280;3510;43.200;27.920;2023-04-26T04:48:27;100043.75;;;20.80;49.77
6942;BME280;3510;43.200;27.920;2023-04-26T04:50:54;100037.72;;;20.76;50.13
6942;BME280;3510;43.200;27.920;2023-04-26T04:53:22;100038.56;;;21.97;47.78
6942;BME280;3510;43.200;27.920;2023-04-26T04:55:48;100048.03;;;21.37;48.40
6942;BME280;3510;43.200;27.920;2023-04-26T04:58:15;100052.06;;;21.59;48.51
6942;BME280;3510;43.200;27.920;2023-04-26T05:00:42;100049.91;;;21.74;48.05
6942;BME280;3510;43.200;27.920;2023-04-26T05:03:09;100042.69;;;21.31;49.04
6942;BME280;3510;43.200;27.920;2023-04-26T05:05:36;100045.75;;;21.79;48.11
6942;BME280;3510;43.200;27.920;2023-04-26T05:08:03;100042.00;;;21.66;48.12
6942;BME280;3510;43.200;27.920;2023-04-26T05:10:33;100050.59;;;22.00;47.64
6942;BME280;3510;43.200;27.920;2023-04-26T05:13:00;100054.41;;;21.83;47.68
6942;BME280;3510;43.200;27.920;2023-04-26T05:15:33;100053.66;;;22.18;47.21
6942;BME280;3510;43.200;27.920;2023-04-26T05:18:01;100058.47;;;21.76;47.84
6942;BME280;3510;43.200;27.920;2023-04-26T05:20:28;100058.88;;;21.58;48.13
6942;BME280;3510;43.200;27.920;2023-04-26T05:22:55;100050.81;;;21.44;48.60
6942;BME280;3510;43.200;27.920;2023-04-26T05:25:21;100059.75;;;21.59;48.61
6942;BME280;3510;43.200;27.920;2023-04-26T05:27:49;100063.63;;;21.46;48.61
6942;BME280;3510;43.200;27.920;2023-04-26T05:30:16;100059.81;;;21.95;47.76
6942;BME280;3510;43.200;27.920;2023-04-26T05:32:43;100054.56;;;21.89;47.46
6942;BME280;3510;43.200;27.920;2023-04-26T05:35:10;100056.25;;;21.28;48.75
6942;BME280;3510;43.200;27.920;2023-04-26T05:37:37;100060.38;;;21.83;47.82
6942;BME280;3510;43.200;27.920;2023-04-26T05:40:05;100057.25;;;20.74;49.66
6942;BME280;3510;43.200;27.920;2023-04-26T05:42:32;100061.41;;;20.71;50.28
6942;BME280;3510;43.200;27.920;2023-04-26T05:44:59;100064.94;;;21.03;49.26
6942;BME280;3510;43.200;27.920;2023-04-26T05:47:26;100065.75;;;21.02;49.46
6942;BME280;3510;43.200;27.920;2023-04-26T05:49:52;100070.25;;;21.38;48.82
6942;BME280;3510;43.200;27.920;2023-04-26T05:52:19;100060.28;;;21.47;48.34
6942;BME280;3510;43.200;27.920;2023-04-26T05:54:46;100069.59;;;21.16;49.20
6942;BME280;3510;43.200;27.920;2023-04-26T05:57:14;100067.25;;;21.24;48.87
6942;BME280;3510;43.200;27.920;2023-04-26T05:59:42;100071.22;;;21.43;48.56
6942;BME280;3510;43.200;27.920;2023-04-26T06:02:11;100074.84;;;21.49;48.11
6942;BME280;3510;43.200;27.920;2023-04-26T06:04:38;100078.75;;;21.37;48.33
6942;BME280;3510;43.200;27.920;2023-04-26T06:07:04;100082.78;;;21.30;48.40
6942;BME280;3510;43.200;27.920;2023-04-26T06:09:31;100086.44;;;21.10;48.92
6942;BME280;3510;43.200;27.920;2023-04-26T06:11:59;100083.34;;;20.91;49.18
6942;BME280;3510;43.200;27.920;2023-04-26T06:14:26;100084.78;;;20.83;49.86
6942;BME280;3510;43.200;27.920;2023-04-26T06:16:52;100080.06;;;20.68;50.31
6942;BME280;3510;43.200;27.920;2023-04-26T06:19:21;100083.81;;;20.79;50.16
6942;BME280;3510;43.200;27.920;2023-04-26T06:21:52;100087.53;;;20.37;51.32
6942;BME280;3510;43.200;27.920;2023-04-26T06:24:21;100090.59;;;20.26;51.54
6942;BME280;3510;43.200;27.920;2023-04-26T06:26:48;100093.53;;;20.63;50.88
6942;BME280;3510;43.200;27.920;2023-04-26T06:29:14;100086.97;;;20.71;50.78
6942;BME280;3510;43.200;27.920;2023-04-26T06:31:41;100092.16;;;20.47;51.88
6942;BME280;3510;43.200;27.920;2023-04-26T06:36:44;100099.31;;;20.57;51.82
6942;BME280;3510;43.200;27.920;2023-04-26T06:41:46;100093.09;;;20.76;51.93
6942;BME280;3510;43.200;27.920;2023-04-26T06:44:13;100097.69;;;21.15;50.99
6942;BME280;3510;43.200;27.920;2023-04-26T06:46:39;100101.78;;;21.10;51.72
6942;BME280;3510;43.200;27.920;2023-04-26T06:49:06;100113.28;;;21.22;51.46
6942;BME280;3510;43.200;27.920;2023-04-26T06:54:09;100101.72;;;21.35;51.39
6942;BME280;3510;43.200;27.920;2023-04-26T06:56:35;100103.06;;;21.24;51.72
6942;BME280;3510;43.200;27.920;2023-04-26T06:59:02;100105.66;;;21.53;51.68
6942;BME280;3510;43.200;27.920;2023-04-26T07:01:29;100103.81;;;21.79;51.01
6942;BME280;3510;43.200;27.920;2023-04-26T07:03:58;100112.09;;;22.00;50.56
6942;BME280;3510;43.200;27.920;2023-04-26T07:06:25;100108.31;;;22.17;50.02
6942;BME280;3510;43.200;27.920;2023-04-26T07:08:52;100113.03;;;22.04;50.42
6942;BME280;3510;43.200;27.920;2023-04-26T07:11:20;100117.38;;;21.74;51.01
6942;BME280;3510;43.200;27.920;2023-04-26T07:13:47;100110.31;;;22.64;49.78
6942;BME280;3510;43.200;27.920;2023-04-26T07:16:13;100112.78;;;22.61;49.20
6942;BME280;3510;43.200;27.920;2023-04-26T07:18:41;100120.34;;;22.55;49.52
6942;BME280;3510;43.200;27.920;2023-04-26T07:21:07;100114.59;;;22.65;49.29
6942;BME280;3510;43.200;27.920;2023-04-26T07:23:34;100108.09;;;22.11;50.00
6942;BME280;3510;43.200;27.920;2023-04-26T07:26:01;100114.13;;;22.81;49.29
6942;BME280;3510;43.200;27.920;2023-04-26T07:28:30;100112.47;;;22.83;48.76
6942;BME280;3510;43.200;27.920;2023-04-26T07:30:57;100100.06;;;22.65;49.02
6942;BME280;3510;43.200;27.920;2023-04-26T07:33:26;100116.25;;;23.37;47.59
6942;BME280;3510;43.200;27.920;2023-04-26T07:36:03;100108.50;;;23.34;47.44
6942;BME280;3510;43.200;27.920;2023-04-26T07:38:30;100093.47;;;22.75;47.41
6942;BME280;3510;43.200;27.920;2023-04-26T07:40:57;100112.84;;;23.38;46.33
6942;BME280;3510;43.200;27.920;2023-04-26T07:43:26;100089.03;;;23.06;46.45
6942;BME280;3510;43.200;27.920;2023-04-26T07:45:54;100106.47;;;24.05;45.44
6942;BME280;3510;43.200;27.920;2023-04-26T07:48:21;100113.22;;;24.46;44.38
6942;BME280;3510;43.200;27.920;2023-04-26T07:50:47;100116.88;;;24.58;43.26
6942;BME280;3510;43.200;27.920;2023-04-26T07:53:14;100115.72;;;24.97;42.55
6942;BME280;3510;43.200;27.920;2023-04-26T07:55:41;100121.69;;;24.95;41.78
6942;BME280;3510;43.200;27.920;2023-04-26T07:58:08;100114.84;;;23.94;41.51
6942;BME280;3510;43.200;27.920;2023-04-26T08:00:39;100081.88;;;24.71;41.70
6942;BME280;3510;43.200;27.920;2023-04-26T08:03:07;100124.59;;;25.81;39.74
6942;BME280;3510;43.200;27.920;2023-04-26T08:05:33;100070.16;;;25.57;40.27
6942;BME280;3510;43.200;27.920;2023-04-26T08:08:01;100108.28;;;25.82;40.07
6942;BME280;3510;43.200;27.920;2023-04-26T08:10:28;100116.88;;;25.81;40.24
6942;BME280;3510;43.200;27.920;2023-04-26T08:12:55;100106.50;;;26.68;38.56
6942;BME280;3510;43.200;27.920;2023-04-26T08:15:27;100100.53;;;26.74;37.74
6942;BME280;3510;43.200;27.920;2023-04-26T08:17:54;100108.59;;;26.15;37.73
6942;BME280;3510;43.200;27.920;2023-04-26T08:20:22;100069.41;;;25.67;37.68
6942;BME280;3510;43.200;27.920;2023-04-26T08:22:54;100106.38;;;25.69;36.96
6942;BME280;3510;43.200;27.920;2023-04-26T08:25:23;100114.84;;;26.43;37.09
6942;BME280;3510;43.200;27.920;2023-04-26T08:27:50;100112.22;;;26.35;36.42
6942;BME280;3510;43.200;27.920;2023-04-26T08:30:18;100108.72;;;26.28;36.12
6942;BME280;3510;43.200;27.920;2023-04-26T08:32:46;100045.84;;;26.14;36.08
6942;BME280;3510;43.200;27.920;2023-04-26T08:35:13;100084.34;;;25.97;35.51
6942;BME280;3510;43.200;27.920;2023-04-26T08:37:55;100091.09;;;25.83;35.81
6942;BME280;3510;43.200;27.920;2023-04-26T08:40:23;100100.56;;;25.87;36.03
6942;BME280;3510;43.200;27.920;2023-04-26T08:42:51;100117.72;;;25.83;35.85
6942;BME280;3510;43.200;27.920;2023-04-26T08:45:19;100096.44;;;26.03;35.79
6942;BME280;3510;43.200;27.920;2023-04-26T08:48:02;100038.25;;;26.34;34.89
6942;BME280;3510;43.200;27.920;2023-04-26T08:50:44;100084.03;;;25.68;36.81
6942;BME280;3510;43.200;27.920;2023-04-26T08:53:16;100115.88;;;26.59;35.57
6942;BME280;3510;43.200;27.920;2023-04-26T08:55:47;100116.41;;;26.22;35.89
6942;BME280;3510;43.200;27.920;2023-04-26T08:58:17;100105.03;;;26.02;36.33
6942;BME280;3510;43.200;27.920;2023-04-26T09:00:46;100111.19;;;26.15;36.24
6942;BME280;3510;43.200;27.920;2023-04-26T09:03:14;100119.53;;;26.87;35.68
6942;BME280;3510;43.200;27.920;2023-04-26T09:05:46;100103.38;;;25.35;37.25
6942;BME280;3510;43.200;27.920;2023-04-26T09:08:17;100104.34;;;26.21;36.16
6942;BME280;3510;43.200;27.920;2023-04-26T09:10:49;100062.81;;;25.91;37.22
6942;BME280;3510;43.200;27.920;2023-04-26T09:13:16;100119.00;;;26.22;36.83
6942;BME280;3510;43.200;27.920;2023-04-26T09:15:43;100085.16;;;25.92;36.83
6942;BME280;3510;43.200;27.920;2023-04-26T09:18:15;100117.59;;;26.58;36.04
6942;BME280;3510;43.200;27.920;2023-04-26T09:20:44;100044.13;;;26.16;36.55
6942;BME280;3510;43.200;27.920;2023-04-26T09:26:17;100100.09;;;26.26;35.85
6942;BME280;3510;43.200;27.920;2023-04-26T09:29:10;100126.41;;;25.92;38.84
6942;BME280;3510;43.200;27.920;2023-04-26T09:31:39;100088.69;;;25.28;39.67
6942;BME280;3510;43.200;27.920;2023-04-26T09:34:11;100123.38;;;26.33;39.49
6942;BME280;3510;43.200;27.920;2023-04-26T09:36:54;100121.69;;;25.57;42.02
6942;BME280;3510;43.200;27.920;2023-04-26T09:39:30;100105.59;;;24.03;44.87
6942;BME280;3510;43.200;27.920;2023-04-26T09:42:02;100101.06;;;25.55;41.76
6942;BME280;3510;43.200;27.920;2023-04-26T09:44:37;100068.84;;;25.21;42.20
6942;BME280;3510;43.200;27.920;2023-04-26T09:47:07;100108.72;;;26.27;41.35
6942;BME280;3510;43.200;27.920;2023-04-26T09:49:45;100088.88;;;26.18;41.42
6942;BME280;3510;43.200;27.920;2023-04-26T09:52:15;100113.69;;;26.07;41.82
6942;BME280;3510;43.200;27.920;2023-04-26T09:54:44;100099.59;;;25.77;42.07
6942;BME280;3510;43.200;27.920;2023-04-26T09:57:14;100119.28;;;25.72;42.31
6942;BME280;3510;43.200;27.920;2023-04-26T09:59:44;100119.75;;;25.38;43.67
6942;BME280;3510;43.200;27.920;2023-04-26T10:02:15;100074.00;;;24.60;44.49
6942;BME280;3510;43.200;27.920;2023-04-26T10:04:44;100113.06;;;25.52;43.53
6942;BME280;3510;43.200;27.920;2023-04-26T10:07:14;100083.84;;;25.54;43.45
6942;BME280;3510;43.200;27.920;2023-04-26T10:09:42;100095.19;;;25.67;42.95
6942;BME280;3510;43.200;27.920;2023-04-26T10:12:10;100118.22;;;26.36;41.82
6942;BME280;3510;43.200;27.920;2023-04-26T10:14:38;100121.16;;;26.72;41.29
6942;BME280;3510;43.200;27.920;2023-04-26T10:17:07;100061.47;;;26.36;41.66
6942;BME280;3510;43.200;27.920;2023-04-26T10:19:35;100096.22;;;26.74;40.91
6942;BME280;3510;43.200;27.920;2023-04-26T10:22:06;100092.66;;;26.60;41.56
6942;BME280;3510;43.200;27.920;2023-04-26T10:24:34;100105.69;;;26.80;41.73
6942;BME280;3510;43.200;27.920;2023-04-26T10:27:02;100104.28;;;26.12;42.39
6942;BME280;3510;43.200;27.920;2023-04-26T10:32:30;100076.31;;;26.60;41.46
6942;BME280;3510;43.200;27.920;2023-04-26T10:35:10;100099.84;;;27.07;40.51
6942;BME280;3510;43.200;27.920;2023-04-26T10:40:37;100064.59;;;27.14;39.69
6942;BME280;3510;43.200;27.920;2023-04-26T10:43:26;100093.34;;;28.29;38.46
6942;BME280;3510;43.200;27.920;2023-04-26T10:45:53;100083.88;;;28.64;38.37
6942;BME280;3510;43.200;27.920;2023-04-26T10:48:36;100103.75;;;28.56;37.84
6942;BME280;3510;43.200;27.920;2023-04-26T10:51:10;100093.34;;;28.16;37.67
6942;BME280;3510;43.200;27.920;2023-04-26T10:59:20;99995.81;;;27.60;37.73
6942;BME280;3510;43.200;27.920;2023-04-26T11:01:51;100113.19;;;29.06;36.45
6942;BME280;3510;43.200;27.920;2023-04-26T11:12:21;100068.34;;;28.28;36.87
6942;BME280;3510;43.200;27.920;2023-04-26T11:14:50;100060.53;;;27.77;38.15
6942;BME280;3510;43.200;27.920;2023-04-26T11:17:17;100036.09;;;27.03;37.70
6942;BME280;3510;43.200;27.920;2023-04-26T11:19:46;100077.34;;;26.86;39.18
6942;BME280;3510;43.200;27.920;2023-04-26T11:22:21;100089.47;;;27.01;38.53
6942;BME280;3510;43.200;27.920;2023-04-26T11:24:49;100104.59;;;28.54;37.01
6942;BME280;3510;43.200;27.920;2023-04-26T11:27:16;100054.50;;;28.65;35.65
6942;BME280;3510;43.200;27.920;2023-04-26T11:51:25;100093.16;;;27.43;36.58
6942;BME280;3510;43.200;27.920;2023-04-26T11:54:06;99985.91;;;24.80;40.84
6942;BME280;3510;43.200;27.920;2023-04-26T11:56:47;100030.84;;;26.82;38.52
6942;BME280;3510;43.200;27.920;2023-04-26T12:09:52;100092.50;;;28.69;36.08
6942;BME280;3510;43.200;27.920;2023-04-26T12:12:22;100080.44;;;28.45;35.29
6942;BME280;3510;43.200;27.920;2023-04-26T12:20:14;100103.53;;;27.58;37.59
6942;BME280;3510;43.200;27.920;2023-04-26T12:51:24;100080.38;;;25.49;41.09
6942;BME280;3510;43.200;27.920;2023-04-26T13:06:48;100080.00;;;24.59;43.10
6942;BME280;3510;43.200;27.920;2023-04-26T13:09:16;100082.09;;;24.86;42.96
6942;BME280;3510;43.200;27.920;2023-04-26T13:17:01;100031.81;;;25.85;40.71
6942;BME280;3510;43.200;27.920;2023-04-26T13:19:29;100036.72;;;25.63;40.90
6942;BME280;3510;43.200;27.920;2023-04-26T13:21:57;100064.28;;;25.72;41.74
6942;BME280;3510;43.200;27.920;2023-04-26T13:24:24;100038.56;;;25.76;40.73
6942;BME280;3510;43.200;27.920;2023-04-26T13:26:51;100056.38;;;26.45;39.90
6942;BME280;3510;43.200;27.920;2023-04-26T13:29:18;100013.28;;;26.31;39.46
6942;BME280;3510;43.200;27.920;2023-04-26T13:31:45;100066.69;;;26.42;39.56
6942;BME280;3510;43.200;27.920;2023-04-26T13:34:12;100015.91;;;26.39;39.56
6942;BME280;3510;43.200;27.920;2023-04-26T13:36:39;100057.56;;;25.83;40.57
6942;BME280;3510;43.200;27.920;2023-04-26T13:39:08;100065.78;;;26.40;39.92
6942;BME280;3510;43.200;27.920;2023-04-26T13:41:35;100071.53;;;25.27;41.42
6942;BME280;3510;43.200;27.920;2023-04-26T13:44:03;100068.09;;;25.28;41.78
6942;BME280;3510;43.200;27.920;2023-04-26T13:46:30;100012.88;;;25.09;41.89
6942;BME280;3510;43.200;27.920;2023-04-26T13:48:57;100006.97;;;25.93;40.70
6942;BME280;3510;43.200;27.920;2023-04-26T13:51:31;100041.94;;;26.68;38.76
6942;BME280;3510;43.200;27.920;2023-04-26T13:56:36;100072.94;;;26.70;39.06
6942;BME280;3510;43.200;27.920;2023-04-26T14:01:46;100010.59;;;25.29;41.14
6942;BME280;3510;43.200;27.920;2023-04-26T14:04:27;99989.00;;;25.18;41.13
6942;BME280;3510;43.200;27.920;2023-04-26T14:07:06;100041.13;;;26.75;38.87
6942;BME280;3510;43.200;27.920;2023-04-26T14:09:47;99930.72;;;26.35;38.03
6942;BME280;3510;43.200;27.920;2023-04-26T14:12:21;100006.97;;;27.30;37.07
6942;BME280;3510;43.200;27.920;2023-04-26T14:15:02;100010.22;;;26.94;37.88
6942;BME280;3510;43.200;27.920;2023-04-26T14:17:43;100071.78;;;28.36;35.88
6942;BME280;3510;43.200;27.920;2023-04-26T14:20:24;100079.53;;;28.25;35.90
6942;BME280;3510;43.200;27.920;2023-04-26T14:25:40;99973.38;;;28.59;34.51
6942;BME280;3510;43.200;27.920;2023-04-26T14:30:50;100010.53;;;28.52;34.50
6942;BME280;3510;43.200;27.920;2023-04-26T14:33:31;100088.16;;;28.01;36.10
6942;BME280;3510;43.200;27.920;2023-04-26T14:38:35;100094.19;;;28.97;34.55
6942;BME280;3510;43.200;27.920;2023-04-26T14:43:37;100085.91;;;26.77;38.05
6942;BME280;3510;43.200;27.920;2023-04-26T14:46:12;100049.00;;;27.03;37.01
6942;BME280;3510;43.200;27.920;2023-04-26T14:48:39;100068.19;;;26.15;38.30
6942;BME280;3510;43.200;27.920;2023-04-26T14:53:47;100067.72;;;25.72;39.39
6942;BME280;3510;43.200;27.920;2023-04-26T14:56:16;100086.44;;;26.37;38.65
6942;BME280;3510;43.200;27.920;2023-04-26T15:01:20;100080.19;;;26.13;39.11
6942;BME280;3510;43.200;27.920;2023-04-26T15:11:32;100072.84;;;25.69;39.68
6942;BME280;3510;43.200;27.920;2023-04-26T15:19:13;100074.59;;;25.70;40.10
6942;BME280;3510;43.200;27.920;2023-04-26T15:21:42;100031.22;;;25.31;39.78
6942;BME280;3510;43.200;27.920;2023-04-26T15:24:09;100044.44;;;24.95;40.61
6942;BME280;3510;43.200;27.920;2023-04-26T15:29:21;100063.16;;;23.78;43.24
6942;BME280;3510;43.200;27.920;2023-04-26T15:31:49;99962.88;;;23.77;42.41
6942;BME280;3510;43.200;27.920;2023-04-26T15:34:18;100036.00;;;23.49;43.78
6942;BME280;3510;43.200;27.920;2023-04-26T15:36:46;100100.72;;;24.69;42.32
6942;BME280;3510;43.200;27.920;2023-04-26T15:39:13;100102.63;;;24.83;42.05
6942;BME280;3510;43.200;27.920;2023-04-26T15:41:42;100106.34;;;24.45;43.07